Weather at Lac Pontbriand Water Aerodrome [CLOSED]

Public forecast

Using degrees Celsius for public forecast. Weather courtesy of forecast.io.

Closest aviation weather report (METAR) to Lac Pontbriand Water Aerodrome

Closest report is Montreal International (Mirabel) Airport, 24.8 nm (45.9 km) SSW.

2024/05/30 07:00 (retrieved 33 minutes ago)

CYMX 300700Z 36003KT 310V030 25SM SKC 09/03 A3000 RMK SLP164

Closest aviation forecast (TAF) to Lac Pontbriand Water Aerodrome

Closest forecast is Montreal International (Mirabel) Airport, 24.8 nm (45.9 km) SSW.

2024/05/30 06:42 (retrieved 51 minutes ago)

TAF CYMX 300540Z 3006/3106 35007KT P6SM FEW240 FM301200 02005KT P6SM SKC FM301700 33005KT P6SM FEW060 RMK NXT FCST BY 301200Z